createdAt,value
2018-05-07T00:00:26.633Z,27.30
2018-05-07T00:02:54.078Z,27.90
2018-05-07T00:05:21.607Z,27.70
2018-05-07T00:07:49.064Z,28.50
2018-05-07T00:10:16.521Z,28.70
2018-05-07T00:12:44.009Z,29.90
2018-05-07T00:15:11.467Z,30.50
2018-05-07T00:17:38.953Z,30.20
2018-05-07T00:20:06.428Z,30.60
2018-05-07T00:22:34.675Z,31.80
2018-05-07T00:25:02.163Z,31.80
2018-05-07T00:27:29.665Z,31.70
2018-05-07T00:29:57.167Z,32.00
2018-05-07T00:32:25.388Z,32.90
2018-05-07T00:34:52.886Z,32.90
2018-05-07T00:37:20.348Z,32.70
2018-05-07T00:39:48.600Z,35.70
2018-05-07T00:42:16.073Z,35.60
2018-05-07T00:44:43.590Z,36.10
2018-05-07T00:47:11.072Z,37.30
2018-05-07T00:49:38.545Z,36.80
2018-05-07T00:52:06.032Z,37.30
2018-05-07T00:54:46.181Z,39.60
2018-05-07T00:57:14.450Z,40.20
2018-05-07T00:59:41.912Z,40.20
2018-05-07T01:02:10.192Z,40.60
2018-05-07T01:04:38.470Z,42.60
2018-05-07T01:07:06.707Z,45.20
2018-05-07T01:09:34.197Z,45.20
2018-05-07T01:12:02.471Z,45.80
2018-05-07T01:14:29.945Z,45.80
2018-05-07T01:16:58.193Z,46.20
2018-05-07T01:19:25.705Z,46.20
2018-05-07T01:21:53.173Z,44.90
2018-05-07T01:24:20.849Z,45.40
2018-05-07T01:26:48.355Z,46.90
2018-05-07T01:29:15.805Z,48.90
2018-05-07T01:31:43.293Z,48.10
2018-05-07T01:34:10.761Z,48.50
2018-05-07T01:36:38.242Z,48.90
2018-05-07T01:39:05.734Z,48.90
2018-05-07T01:41:33.224Z,48.70
2018-05-07T01:44:00.717Z,49.80
2018-05-07T01:46:28.176Z,50.80
2018-05-07T01:48:55.677Z,51.10
2018-05-07T01:51:23.132Z,50.80
2018-05-07T01:53:50.625Z,51.40
2018-05-07T01:56:18.076Z,50.00
2018-05-07T01:58:45.616Z,51.50
2018-05-07T02:01:13.162Z,52.50
2018-05-07T02:03:40.652Z,51.30
2018-05-07T02:06:08.873Z,52.50
2018-05-07T02:08:36.389Z,52.50
2018-05-07T02:11:04.633Z,52.40
2018-05-07T02:13:32.128Z,52.10
2018-05-07T02:16:00.353Z,52.90
2018-05-07T02:18:27.832Z,52.90
2018-05-07T02:20:55.314Z,54.10
2018-05-07T02:23:23.553Z,54.10
2018-05-07T02:25:51.129Z,53.90
2018-05-07T02:28:18.611Z,54.10
2018-05-07T02:30:46.846Z,54.10
2018-05-07T02:33:14.320Z,54.10
2018-05-07T02:35:41.810Z,54.60
2018-05-07T02:38:09.288Z,54.50
2018-05-07T02:40:36.798Z,53.40
2018-05-07T02:43:04.253Z,55.50
2018-05-07T02:45:31.728Z,55.80
2018-05-07T02:48:00.609Z,57.40
2018-05-07T02:50:28.085Z,57.40
2018-05-07T02:52:56.354Z,57.70
2018-05-07T02:55:24.596Z,56.60
2018-05-07T02:57:52.066Z,56.50
2018-05-07T03:00:19.579Z,55.30
2018-05-07T03:02:47.061Z,56.60
2018-05-07T03:05:14.517Z,55.20
2018-05-07T03:07:42.012Z,57.60
2018-05-07T03:10:09.476Z,58.30
2018-05-07T03:12:36.925Z,58.80
2018-05-07T03:15:04.422Z,60.00
2018-05-07T03:17:31.950Z,59.70
2018-05-07T03:19:59.404Z,57.60
2018-05-07T03:22:26.879Z,59.50
2018-05-07T03:24:54.400Z,58.80
2018-05-07T03:27:21.884Z,59.70
2018-05-07T03:29:49.378Z,60.20
2018-05-07T03:32:16.837Z,60.10
2018-05-07T03:34:44.381Z,70.70
2018-05-07T03:37:12.597Z,70.90
2018-05-07T03:39:40.110Z,70.90
2018-05-07T03:42:08.336Z,71.10
2018-05-07T03:44:35.880Z,71.10
2018-05-07T03:47:03.369Z,70.80
2018-05-07T03:49:30.837Z,71.10
2018-05-07T03:51:58.316Z,71.20
2018-05-07T03:54:26.548Z,71.10
2018-05-07T03:56:54.024Z,71.10
2018-05-07T03:59:23.008Z,71.60
2018-05-07T04:01:50.509Z,71.60
2018-05-07T04:04:18.772Z,71.40
2018-05-07T04:06:46.238Z,71.40
2018-05-07T04:09:14.495Z,71.10
2018-05-07T04:11:42.024Z,71.10
2018-05-07T04:14:09.473Z,71.40
2018-05-07T04:16:48.869Z,71.60
2018-05-07T04:19:29.100Z,71.60
2018-05-07T04:22:08.651Z,71.60
2018-05-07T04:24:36.105Z,72.00
2018-05-07T04:27:03.596Z,72.00
2018-05-07T04:29:31.081Z,72.30
2018-05-07T04:31:58.565Z,72.10
2018-05-07T04:34:26.059Z,71.90
2018-05-07T04:36:54.309Z,72.60
2018-05-07T04:39:21.792Z,72.60
2018-05-07T04:41:50.040Z,73.00
2018-05-07T04:44:17.525Z,73.00
2018-05-07T04:46:45.785Z,73.10
2018-05-07T04:49:13.275Z,73.10
2018-05-07T04:51:40.786Z,72.60
2018-05-07T04:54:08.270Z,72.60
2018-05-07T04:56:36.521Z,62.30
2018-05-07T04:59:03.987Z,62.30
2018-05-07T05:01:31.495Z,62.60
2018-05-07T05:03:58.949Z,62.40
2018-05-07T05:06:26.445Z,61.90
2018-05-07T05:08:53.928Z,62.10
2018-05-07T05:11:21.411Z,62.40
2018-05-07T05:13:49.633Z,62.20
2018-05-07T05:16:17.097Z,62.20
2018-05-07T05:18:44.605Z,62.30
2018-05-07T05:21:12.867Z,62.30
2018-05-07T05:23:40.351Z,62.30
2018-05-07T05:26:07.839Z,61.90
2018-05-07T05:28:35.340Z,61.70
2018-05-07T05:31:02.820Z,62.00
2018-05-07T05:33:31.078Z,61.60
2018-05-07T05:35:58.571Z,61.60
2018-05-07T05:38:26.081Z,61.30
2018-05-07T05:40:53.570Z,60.00
2018-05-07T05:43:21.846Z,60.30
2018-05-07T05:45:50.075Z,59.50
2018-05-07T05:48:17.556Z,59.30
2018-05-07T05:50:45.033Z,55.70
2018-05-07T05:53:13.296Z,48.30
2018-05-07T05:55:40.796Z,48.00
2018-05-07T05:58:08.319Z,46.60
2018-05-07T06:00:36.576Z,43.20
2018-05-07T06:03:04.056Z,43.30
2018-05-07T06:05:31.551Z,43.10
2018-05-07T06:07:59.029Z,42.10
2018-05-07T06:10:26.537Z,39.90
2018-05-07T06:12:54.771Z,40.00
2018-05-07T06:15:22.265Z,40.00
2018-05-07T06:17:50.497Z,37.40
2018-05-07T06:20:17.966Z,37.20
2018-05-07T06:22:45.478Z,36.90
2018-05-07T06:25:12.973Z,37.50
2018-05-07T06:27:40.467Z,36.60
2018-05-07T06:30:07.960Z,36.70
2018-05-07T06:32:35.450Z,35.40
2018-05-07T06:35:02.916Z,36.30
2018-05-07T06:37:30.426Z,34.70
2018-05-07T06:39:58.653Z,32.10
2018-05-07T06:42:26.177Z,32.10
2018-05-07T06:44:53.631Z,32.30
2018-05-07T06:47:21.117Z,32.00
2018-05-07T06:49:48.632Z,31.30
2018-05-07T06:52:16.865Z,31.70
2018-05-07T06:54:44.381Z,31.70
2018-05-07T06:57:11.839Z,31.40
2018-05-07T06:59:40.119Z,32.20
2018-05-07T07:02:08.414Z,32.50
2018-05-07T07:04:36.660Z,32.00
2018-05-07T07:07:04.900Z,31.80
2018-05-07T07:09:32.373Z,31.80
2018-05-07T07:11:59.881Z,32.10
2018-05-07T07:14:27.365Z,32.40
2018-05-07T07:16:54.826Z,31.30
2018-05-07T07:19:22.340Z,31.20
2018-05-07T07:21:50.611Z,32.60
2018-05-07T07:24:18.083Z,32.40
2018-05-07T07:26:45.589Z,31.30
2018-05-07T07:29:13.052Z,31.40
2018-05-07T07:31:40.562Z,31.00
2018-05-07T07:34:08.053Z,31.30
2018-05-07T07:36:35.545Z,31.80
2018-05-07T07:39:03.052Z,32.30
2018-05-07T07:41:30.557Z,33.10
2018-05-07T07:43:59.549Z,33.30
2018-05-07T07:46:27.801Z,32.00
2018-05-07T07:48:55.276Z,32.00
2018-05-07T07:51:23.551Z,30.40
2018-05-07T07:53:52.542Z,30.60
2018-05-07T07:56:20.024Z,30.70
2018-05-07T07:58:47.513Z,31.10
2018-05-07T08:01:14.978Z,31.30
2018-05-07T08:03:42.489Z,33.10
2018-05-07T08:06:10.730Z,31.80
2018-05-07T08:08:38.242Z,31.80
2018-05-07T08:11:05.801Z,32.30
2018-05-07T08:13:34.075Z,33.00
2018-05-07T08:16:02.302Z,32.50
2018-05-07T08:18:29.819Z,32.40
2018-05-07T08:20:58.041Z,32.50
2018-05-07T08:23:25.544Z,32.60
2018-05-07T08:25:53.790Z,31.20
2018-05-07T08:28:21.264Z,31.20
2018-05-07T08:30:48.790Z,30.90
2018-05-07T08:33:16.241Z,30.70
2018-05-07T08:35:43.737Z,30.10
2018-05-07T08:38:11.189Z,30.70
2018-05-07T08:40:38.698Z,31.40
2018-05-07T08:43:06.188Z,31.00
2018-05-07T08:45:33.676Z,30.50
2018-05-07T08:48:01.154Z,30.60
2018-05-07T08:50:29.423Z,29.80
2018-05-07T08:52:57.710Z,29.90
2018-05-07T08:55:25.181Z,29.60
2018-05-07T08:57:52.633Z,29.30
2018-05-07T09:00:20.191Z,30.20
2018-05-07T09:02:47.690Z,29.80
2018-05-07T09:05:15.189Z,30.00
2018-05-07T09:07:42.673Z,31.00
2018-05-07T09:10:10.177Z,30.80
2018-05-07T09:12:37.673Z,31.30
2018-05-07T09:15:05.980Z,31.40
2018-05-07T09:17:33.441Z,31.40
2018-05-07T09:20:00.964Z,30.90
2018-05-07T09:22:28.435Z,30.00
2018-05-07T09:24:56.702Z,30.00
2018-05-07T09:27:24.957Z,29.50
2018-05-07T09:29:52.441Z,29.50
2018-05-07T09:32:20.708Z,29.00
2018-05-07T09:34:48.954Z,30.00
2018-05-07T09:37:16.475Z,30.00
2018-05-07T09:39:43.936Z,29.50
2018-05-07T09:42:11.461Z,30.00
2018-05-07T09:44:38.930Z,31.30
2018-05-07T09:47:07.193Z,29.20
2018-05-07T09:49:34.658Z,29.20
2018-05-07T09:52:02.962Z,29.50
2018-05-07T09:54:30.422Z,29.30
2018-05-07T09:56:58.895Z,29.80
2018-05-07T09:59:26.312Z,29.20
2018-05-07T10:01:53.810Z,30.00
2018-05-07T10:04:22.058Z,30.20
2018-05-07T10:06:49.534Z,30.20
2018-05-07T10:09:17.811Z,28.80
2018-05-07T10:11:45.313Z,28.80
2018-05-07T10:14:12.844Z,29.10
2018-05-07T10:16:41.073Z,29.40
2018-05-07T10:19:08.604Z,29.40
2018-05-07T10:21:36.100Z,29.50
2018-05-07T10:24:03.583Z,29.80
2018-05-07T10:26:31.859Z,29.20
2018-05-07T10:29:00.121Z,29.60
2018-05-07T10:31:27.612Z,29.50
2018-05-07T10:33:55.081Z,29.70
2018-05-07T10:36:22.605Z,28.80
2018-05-07T10:38:50.834Z,29.30
2018-05-07T10:41:18.340Z,29.30
2018-05-07T10:43:46.612Z,29.00
2018-05-07T10:46:14.099Z,28.90
2018-05-07T10:48:41.597Z,28.90
2018-05-07T10:51:09.100Z,28.90
2018-05-07T10:53:37.341Z,29.60
2018-05-07T10:56:04.825Z,29.60
2018-05-07T10:58:33.105Z,29.80
2018-05-07T11:01:01.342Z,30.20
2018-05-07T11:03:28.858Z,30.30
2018-05-07T11:05:56.318Z,30.60
2018-05-07T11:08:23.797Z,31.60
2018-05-07T11:10:51.281Z,30.90
2018-05-07T11:13:18.787Z,30.00
2018-05-07T11:15:47.030Z,30.00
2018-05-07T11:18:14.533Z,30.00
2018-05-07T11:20:42.035Z,29.30
2018-05-07T11:23:09.522Z,29.40
2018-05-07T11:25:37.760Z,29.40
2018-05-07T11:28:05.252Z,29.40
2018-05-07T11:30:32.728Z,28.90
2018-05-07T11:33:01.000Z,29.40
2018-05-07T11:35:29.258Z,29.70
2018-05-07T11:37:56.772Z,29.70
2018-05-07T11:40:24.263Z,28.80
2018-05-07T11:42:51.742Z,29.00
2018-05-07T11:45:19.249Z,29.30
2018-05-07T11:47:46.815Z,29.60
2018-05-07T11:50:14.269Z,29.80
2018-05-07T11:52:41.757Z,30.00
2018-05-07T11:55:09.274Z,29.50
2018-05-07T11:57:36.744Z,29.50
2018-05-07T12:00:04.231Z,29.30
2018-05-07T12:02:31.809Z,29.60
2018-05-07T12:04:59.240Z,29.70
2018-05-07T12:07:26.781Z,29.70
2018-05-07T12:09:54.280Z,30.30
2018-05-07T12:12:21.786Z,29.60
2018-05-07T12:14:49.308Z,29.60
2018-05-07T12:17:19.230Z,29.70
2018-05-07T12:19:47.526Z,30.00
2018-05-07T12:22:15.804Z,30.20
2018-05-07T12:24:44.073Z,30.50
2018-05-07T12:27:12.337Z,30.10
2018-05-07T12:29:39.813Z,30.10
2018-05-07T12:32:07.355Z,30.40
2018-05-07T12:34:35.590Z,31.30
2018-05-07T12:37:03.083Z,31.30
2018-05-07T12:39:30.571Z,31.90
2018-05-07T12:41:58.069Z,31.10
2018-05-07T12:44:25.555Z,31.60
2018-05-07T12:46:53.151Z,31.20
2018-05-07T12:49:20.580Z,31.00
2018-05-07T12:51:48.841Z,31.40
2018-05-07T12:54:16.330Z,31.00
2018-05-07T12:56:44.618Z,31.20
2018-05-07T12:59:12.877Z,31.40
2018-05-07T13:01:41.145Z,30.40
2018-05-07T13:04:08.621Z,30.40
2018-05-07T13:06:36.913Z,30.50
2018-05-07T13:09:05.233Z,30.50
2018-05-07T13:11:32.726Z,30.80
2018-05-07T13:14:00.221Z,30.20
2018-05-07T13:16:27.754Z,30.20
2018-05-07T13:18:55.977Z,30.80
2018-05-07T13:21:23.569Z,30.80
2018-05-07T13:23:51.050Z,30.50
2018-05-07T13:26:19.326Z,30.50
2018-05-07T13:28:47.592Z,30.30
2018-05-07T13:31:15.844Z,30.90
2018-05-07T13:33:43.345Z,30.70
2018-05-07T13:36:10.829Z,30.40
2018-05-07T13:38:38.370Z,31.10
2018-05-07T13:41:05.882Z,30.40
2018-05-07T13:43:33.382Z,30.50
2018-05-07T13:46:00.856Z,30.70
2018-05-07T13:48:28.381Z,31.20
2018-05-07T13:50:57.087Z,30.10
2018-05-07T13:53:24.615Z,30.10
2018-05-07T13:55:52.849Z,29.90
2018-05-07T13:58:20.309Z,29.80
2018-05-07T14:00:47.858Z,30.10
2018-05-07T14:03:16.105Z,30.20
2018-05-07T14:05:44.391Z,30.60
2018-05-07T14:08:12.637Z,31.50
2018-05-07T14:10:40.137Z,31.50
2018-05-07T14:13:07.599Z,30.40
2018-05-07T14:15:35.149Z,30.70
2018-05-07T14:18:03.407Z,31.50
2018-05-07T14:20:31.661Z,30.20
2018-05-07T14:22:59.136Z,30.10
2018-05-07T14:25:27.398Z,30.00
2018-05-07T14:27:54.927Z,30.00
2018-05-07T14:30:22.417Z,30.00
2018-05-07T14:32:49.910Z,29.80
2018-05-07T14:35:18.149Z,29.80
2018-05-07T14:37:45.644Z,29.80
2018-05-07T14:40:13.143Z,30.10
2018-05-07T14:42:40.634Z,30.30
2018-05-07T14:45:08.101Z,29.90
2018-05-07T14:47:35.605Z,29.60
2018-05-07T14:50:03.204Z,29.50
2018-05-07T14:52:30.732Z,29.70
2018-05-07T14:54:58.268Z,29.60
2018-05-07T14:57:25.793Z,30.00
2018-05-07T14:59:53.286Z,29.70
2018-05-07T15:02:20.737Z,29.60
2018-05-07T15:04:48.249Z,29.60
2018-05-07T15:07:15.730Z,29.90
2018-05-07T15:09:43.226Z,29.50
2018-05-07T15:12:10.675Z,29.50
2018-05-07T15:14:38.189Z,29.80
2018-05-07T15:17:05.686Z,29.40
2018-05-07T15:19:33.928Z,29.10
2018-05-07T15:22:01.405Z,29.10
2018-05-07T15:27:27.852Z,29.30
2018-05-07T15:29:55.370Z,29.30
2018-05-07T15:32:22.866Z,29.30
2018-05-07T15:34:50.379Z,29.20
2018-05-07T15:37:18.703Z,28.90
2018-05-07T15:39:46.206Z,28.80
2018-05-07T15:42:13.683Z,28.60
2018-05-07T15:44:41.197Z,28.60
2018-05-07T15:47:09.482Z,27.80
2018-05-07T15:49:37.710Z,27.80
2018-05-07T15:52:05.205Z,27.80
2018-05-07T15:54:33.909Z,27.90
2018-05-07T15:57:01.440Z,27.90
2018-05-07T15:59:28.910Z,27.80
2018-05-07T16:01:57.781Z,28.10
2018-05-07T16:04:25.273Z,28.10
2018-05-07T16:06:53.549Z,27.60
2018-05-07T16:09:21.821Z,28.00
2018-05-07T16:11:50.090Z,27.70
2018-05-07T16:14:18.321Z,27.30
2018-05-07T16:16:45.808Z,27.30
2018-05-07T16:19:14.098Z,27.30
2018-05-07T16:21:42.553Z,27.20
2018-05-07T16:24:10.683Z,26.90
2018-05-07T16:26:38.165Z,26.90
2018-05-07T16:29:06.278Z,26.60
2018-05-07T16:31:33.895Z,26.50
2018-05-07T16:34:01.403Z,26.50
2018-05-07T16:36:29.669Z,26.30
2018-05-07T16:38:57.198Z,26.30
2018-05-07T16:41:24.691Z,26.50
2018-05-07T16:43:52.165Z,26.30
2018-05-07T16:46:20.451Z,26.30
2018-05-07T16:48:48.753Z,26.30
2018-05-07T16:51:16.220Z,26.30
2018-05-07T16:53:43.672Z,26.10
2018-05-07T16:56:11.178Z,25.90
2018-05-07T16:58:38.660Z,26.00
2018-05-07T17:01:06.919Z,25.70
2018-05-07T17:03:34.380Z,25.50
2018-05-07T17:06:02.661Z,25.50
2018-05-07T17:08:30.930Z,25.60
2018-05-07T17:10:58.437Z,25.40
2018-05-07T17:13:25.955Z,25.00
2018-05-07T17:15:54.188Z,24.90
2018-05-07T17:18:21.693Z,24.60
2018-05-07T17:20:49.937Z,25.20
2018-05-07T17:23:17.437Z,25.10
2018-05-07T17:25:45.674Z,24.80
2018-05-07T17:28:13.183Z,24.80
2018-05-07T17:30:40.650Z,24.90
2018-05-07T17:33:08.181Z,25.10
2018-05-07T17:35:36.428Z,24.90
2018-05-07T17:38:03.929Z,24.90
2018-05-07T17:40:32.172Z,25.00
2018-05-07T17:42:59.643Z,24.90
2018-05-07T17:45:39.149Z,25.00
2018-05-07T17:48:18.563Z,24.80
2018-05-07T17:50:46.071Z,25.00
2018-05-07T17:53:13.550Z,25.10
2018-05-07T17:55:41.828Z,25.30
2018-05-07T17:58:10.053Z,25.20
2018-05-07T18:00:37.564Z,25.20
2018-05-07T18:03:05.818Z,25.70
2018-05-07T18:05:33.335Z,25.60
2018-05-07T18:08:00.797Z,26.10
2018-05-07T18:10:28.303Z,25.80
2018-05-07T18:12:55.811Z,26.10
2018-05-07T18:15:23.400Z,26.40
2018-05-07T18:17:50.887Z,26.40
2018-05-07T18:20:18.360Z,26.90
2018-05-07T18:22:46.602Z,28.10
2018-05-07T18:25:14.096Z,28.20
2018-05-07T18:27:42.355Z,28.90
2018-05-07T18:30:10.594Z,29.10
2018-05-07T18:32:38.133Z,29.00
2018-05-07T18:35:05.597Z,29.50
2018-05-07T18:37:33.102Z,29.80
2018-05-07T18:40:00.589Z,29.60
2018-05-07T18:42:28.853Z,29.10
2018-05-07T18:44:57.097Z,29.50
2018-05-07T18:47:24.560Z,29.50
2018-05-07T18:49:52.064Z,29.60
2018-05-07T18:52:19.542Z,28.90
2018-05-07T18:54:47.082Z,29.00
2018-05-07T18:57:14.559Z,29.20
2018-05-07T18:59:42.050Z,29.00
2018-05-07T19:02:09.514Z,29.10
2018-05-07T19:04:37.003Z,29.10
2018-05-07T19:07:05.275Z,29.00
2018-05-07T19:09:34.312Z,28.90
2018-05-07T19:12:01.794Z,29.00
2018-05-07T19:14:29.358Z,28.90
2018-05-07T19:16:56.790Z,29.00
2018-05-07T19:19:24.305Z,28.80
2018-05-07T19:21:52.549Z,28.90
2018-05-07T19:24:21.572Z,28.80
2018-05-07T19:26:49.812Z,28.90
2018-05-07T19:29:17.273Z,28.90
2018-05-07T19:31:44.763Z,29.10
2018-05-07T19:34:13.018Z,29.10
2018-05-07T19:36:41.263Z,29.30
2018-05-07T19:39:08.760Z,29.30
2018-05-07T19:41:36.263Z,29.00
2018-05-07T19:44:03.733Z,29.30
2018-05-07T19:46:31.255Z,29.50
2018-05-07T19:48:59.494Z,29.50
2018-05-07T19:51:27.036Z,29.50
2018-05-07T19:53:54.522Z,29.60
2018-05-07T19:56:22.029Z,29.80
2018-05-07T19:58:50.270Z,30.10
2018-05-07T20:01:18.540Z,29.90
2018-05-07T20:03:47.540Z,29.70
2018-05-07T20:06:15.032Z,29.70
2018-05-07T20:08:42.520Z,29.60
2018-05-07T20:11:10.013Z,29.90
2018-05-07T20:13:38.254Z,30.50
2018-05-07T20:16:05.726Z,30.60
2018-05-07T20:18:33.239Z,30.40
2018-05-07T20:21:00.752Z,30.40
2018-05-07T20:23:28.264Z,30.50
2018-05-07T20:25:55.719Z,30.60
2018-05-07T20:28:24.142Z,30.80
2018-05-07T20:30:51.646Z,31.00
2018-05-07T20:33:20.968Z,31.10
2018-05-07T20:35:52.281Z,31.90
2018-05-07T20:38:20.672Z,31.90
2018-05-07T20:40:48.938Z,32.20
2018-05-07T20:43:16.432Z,32.00
2018-05-07T20:45:43.896Z,32.30
2018-05-07T20:48:11.480Z,32.10
2018-05-07T20:50:38.941Z,32.50
2018-05-07T20:53:06.437Z,32.40
2018-05-07T20:55:33.933Z,32.40
2018-05-07T20:58:01.421Z,32.10
2018-05-07T21:00:28.939Z,32.50
2018-05-07T21:02:56.414Z,33.90
2018-05-07T21:05:23.920Z,33.90
2018-05-07T21:07:51.380Z,34.40
2018-05-07T21:10:19.669Z,35.50
2018-05-07T21:12:47.910Z,35.20
2018-05-07T21:15:15.413Z,35.10
2018-05-07T21:17:43.662Z,36.60
2018-05-07T21:20:11.161Z,36.60
2018-05-07T21:22:38.642Z,37.20
2018-05-07T21:25:06.170Z,38.20
2018-05-07T21:27:34.398Z,40.20
2018-05-07T21:30:01.930Z,40.20
2018-05-07T21:32:29.395Z,42.10
2018-05-07T21:34:56.864Z,43.80
2018-05-07T21:37:24.381Z,44.40
2018-05-07T21:39:52.623Z,46.20
2018-05-07T21:42:20.160Z,46.20
2018-05-07T21:44:47.668Z,46.90
2018-05-07T21:47:15.936Z,46.90
2018-05-07T21:49:44.169Z,47.40
2018-05-07T21:52:11.682Z,47.20
2018-05-07T21:54:39.916Z,48.10
2018-05-07T21:57:07.404Z,48.10
2018-05-07T21:59:35.652Z,48.80
2018-05-07T22:02:03.164Z,48.80
2018-05-07T22:04:30.645Z,49.40
2018-05-07T22:06:58.145Z,49.30
2018-05-07T22:09:25.624Z,50.40
2018-05-07T22:11:53.929Z,54.40
2018-05-07T22:14:21.400Z,54.40
2018-05-07T22:16:48.904Z,55.00
2018-05-07T22:19:16.409Z,55.30
2018-05-07T22:21:43.928Z,54.80
2018-05-07T22:24:12.182Z,54.60
2018-05-07T22:26:39.651Z,54.60
2018-05-07T22:29:07.153Z,55.40
2018-05-07T22:31:34.617Z,54.90
2018-05-07T22:34:02.109Z,54.50
2018-05-07T22:36:29.622Z,57.00
2018-05-07T22:39:14.731Z,57.40
2018-05-07T22:41:42.224Z,57.70
2018-05-07T22:44:10.489Z,57.70
2018-05-07T22:46:37.969Z,57.70
2018-05-07T22:49:06.227Z,58.20
2018-05-07T22:51:33.714Z,58.10
2018-05-07T22:54:01.210Z,59.80
2018-05-07T22:56:28.712Z,59.40
2018-05-07T22:58:56.981Z,60.20
2018-05-07T23:01:24.452Z,60.10
2018-05-07T23:03:52.734Z,60.20
2018-05-07T23:06:20.974Z,60.50
2018-05-07T23:08:48.437Z,60.50
2018-05-07T23:11:15.945Z,60.70
2018-05-07T23:13:43.424Z,60.50
2018-05-07T23:16:10.913Z,60.70
2018-05-07T23:18:38.397Z,60.90
2018-05-07T23:21:06.672Z,60.90
2018-05-07T23:23:34.901Z,61.20
2018-05-07T23:26:02.398Z,61.20
2018-05-07T23:28:29.865Z,60.80
2018-05-07T23:30:58.124Z,61.40
2018-05-07T23:33:25.594Z,61.30
2018-05-07T23:35:53.854Z,61.50
2018-05-07T23:38:21.317Z,61.50
2018-05-07T23:40:48.829Z,61.30
2018-05-07T23:43:16.301Z,61.60
2018-05-07T23:45:43.825Z,61.60
2018-05-07T23:48:12.087Z,61.90
2018-05-07T23:50:40.321Z,62.20
2018-05-07T23:53:07.841Z,62.20
2018-05-07T23:55:35.308Z,62.20
2018-05-07T23:58:02.792Z,62.40
